sensor_id;sensor_type;location;lat;lon;timestamp;pressure;altitude;pressure_sealevel;temperature;humidity
78615;BME280;67937;52.488;20.952;2023-08-21T00:00:11;100982.86;;;21.44;77.62
78615;BME280;67937;52.488;20.952;2023-08-21T00:02:59;100981.84;;;21.40;77.60
78615;BME280;67937;52.488;20.952;2023-08-21T00:05:27;100986.40;;;21.37;77.70
78615;BME280;67937;52.488;20.952;2023-08-21T00:07:55;100985.74;;;21.31;77.78
78615;BME280;67937;52.488;20.952;2023-08-21T00:10:23;100988.15;;;21.26;77.82
78615;BME280;67937;52.488;20.952;2023-08-21T00:12:51;100988.66;;;21.23;78.08
78615;BME280;67937;52.488;20.952;2023-08-21T00:15:19;100988.09;;;21.24;78.18
78615;BME280;67937;52.488;20.952;2023-08-21T00:17:47;100983.88;;;21.20;78.03
78615;BME280;67937;52.488;20.952;2023-08-21T00:20:15;100984.61;;;21.09;78.16
78615;BME280;67937;52.488;20.952;2023-08-21T00:22:43;100989.49;;;21.04;78.62
78615;BME280;67937;52.488;20.952;2023-08-21T00:25:10;100985.56;;;21.03;78.45
78615;BME280;67937;52.488;20.952;2023-08-21T00:27:38;100982.60;;;21.04;78.27
78615;BME280;67937;52.488;20.952;2023-08-21T00:30:07;100980.29;;;21.03;78.28
78615;BME280;67937;52.488;20.952;2023-08-21T00:32:35;100980.45;;;20.95;78.16
78615;BME280;67937;52.488;20.952;2023-08-21T00:35:03;100985.52;;;20.91;78.54
78615;BME280;67937;52.488;20.952;2023-08-21T00:37:31;100988.73;;;20.93;78.39
78615;BME280;67937;52.488;20.952;2023-08-21T00:39:59;100983.98;;;20.92;78.49
78615;BME280;67937;52.488;20.952;2023-08-21T00:42:27;100982.75;;;20.84;78.53
78615;BME280;67937;52.488;20.952;2023-08-21T00:44:55;100981.29;;;20.76;78.56
78615;BME280;67937;52.488;20.952;2023-08-21T00:47:23;100987.70;;;20.75;78.75
78615;BME280;67937;52.488;20.952;2023-08-21T00:49:51;100991.64;;;20.78;78.67
78615;BME280;67937;52.488;20.952;2023-08-21T00:52:19;100991.43;;;20.78;78.56
78615;BME280;67937;52.488;20.952;2023-08-21T00:54:47;100985.84;;;20.76;78.79
78615;BME280;67937;52.488;20.952;2023-08-21T00:57:15;100986.76;;;20.75;78.74
78615;BME280;67937;52.488;20.952;2023-08-21T00:59:43;100983.11;;;20.71;78.91
78615;BME280;67937;52.488;20.952;2023-08-21T01:02:11;100987.98;;;20.71;78.78
78615;BME280;67937;52.488;20.952;2023-08-21T01:04:39;100990.10;;;20.71;78.86
78615;BME280;67937;52.488;20.952;2023-08-21T01:07:07;100992.96;;;20.71;78.86
78615;BME280;67937;52.488;20.952;2023-08-21T01:12:25;100998.77;;;20.66;78.91
78615;BME280;67937;52.488;20.952;2023-08-21T01:15:02;100998.25;;;20.61;78.94
78615;BME280;67937;52.488;20.952;2023-08-21T01:17:34;100997.63;;;20.60;79.02
78615;BME280;67937;52.488;20.952;2023-08-21T01:20:06;101002.74;;;20.61;78.70
78615;BME280;67937;52.488;20.952;2023-08-21T01:22:40;101001.77;;;20.60;78.78
78615;BME280;67937;52.488;20.952;2023-08-21T01:25:12;101003.90;;;20.57;78.89
78615;BME280;67937;52.488;20.952;2023-08-21T01:27:48;100998.52;;;20.57;78.75
78615;BME280;67937;52.488;20.952;2023-08-21T01:30:18;101001.71;;;20.54;78.77
78615;BME280;67937;52.488;20.952;2023-08-21T01:32:56;100999.35;;;20.54;78.73
78615;BME280;67937;52.488;20.952;2023-08-21T01:35:28;101004.44;;;20.52;78.72
78615;BME280;67937;52.488;20.952;2023-08-21T01:37:57;101006.08;;;20.47;78.84
78615;BME280;67937;52.488;20.952;2023-08-21T01:40:25;101008.27;;;20.44;79.11
78615;BME280;67937;52.488;20.952;2023-08-21T01:42:53;101009.00;;;20.42;78.97
78615;BME280;67937;52.488;20.952;2023-08-21T01:45:22;101010.11;;;20.40;79.29
78615;BME280;67937;52.488;20.952;2023-08-21T01:47:50;101007.59;;;20.38;79.20
78615;BME280;67937;52.488;20.952;2023-08-21T01:50:18;101005.11;;;20.38;79.19
78615;BME280;67937;52.488;20.952;2023-08-21T01:52:46;101000.87;;;20.41;79.25
78615;BME280;67937;52.488;20.952;2023-08-21T01:55:14;100996.73;;;20.39;79.49
78615;BME280;67937;52.488;20.952;2023-08-21T01:57:42;101004.15;;;20.39;79.48
78615;BME280;67937;52.488;20.952;2023-08-21T02:00:10;101000.90;;;20.37;79.46
78615;BME280;67937;52.488;20.952;2023-08-21T02:02:39;100999.83;;;20.37;79.63
78615;BME280;67937;52.488;20.952;2023-08-21T02:05:07;101000.49;;;20.38;79.66
78615;BME280;67937;52.488;20.952;2023-08-21T02:07:35;100999.66;;;20.37;79.98
78615;BME280;67937;52.488;20.952;2023-08-21T02:10:03;100996.33;;;20.38;79.79
78615;BME280;67937;52.488;20.952;2023-08-21T02:12:31;100994.71;;;20.36;79.55
78615;BME280;67937;52.488;20.952;2023-08-21T02:14:59;100996.84;;;20.30;79.80
78615;BME280;67937;52.488;20.952;2023-08-21T02:17:27;100997.56;;;20.30;79.92
78615;BME280;67937;52.488;20.952;2023-08-21T02:19:55;100997.17;;;20.33;79.97
78615;BME280;67937;52.488;20.952;2023-08-21T02:22:23;100995.41;;;20.35;79.69
78615;BME280;67937;52.488;20.952;2023-08-21T02:24:51;100996.70;;;20.34;79.71
78615;BME280;67937;52.488;20.952;2023-08-21T02:27:19;101000.15;;;20.32;79.52
78615;BME280;67937;52.488;20.952;2023-08-21T02:29:47;101006.23;;;20.32;79.51
78615;BME280;67937;52.488;20.952;2023-08-21T02:32:15;101007.38;;;20.30;79.67
78615;BME280;67937;52.488;20.952;2023-08-21T02:34:43;101003.83;;;20.23;79.64
78615;BME280;67937;52.488;20.952;2023-08-21T02:37:12;101004.69;;;20.19;80.09
78615;BME280;67937;52.488;20.952;2023-08-21T02:39:40;101009.98;;;20.18;79.83
78615;BME280;67937;52.488;20.952;2023-08-21T02:42:07;101004.07;;;20.16;80.00
78615;BME280;67937;52.488;20.952;2023-08-21T02:44:35;101003.66;;;20.08;80.12
78615;BME280;67937;52.488;20.952;2023-08-21T02:47:03;101004.80;;;20.05;80.04
78615;BME280;67937;52.488;20.952;2023-08-21T02:49:31;101001.11;;;20.02;79.98
78615;BME280;67937;52.488;20.952;2023-08-21T02:51:59;101002.06;;;20.00;79.89
78615;BME280;67937;52.488;20.952;2023-08-21T02:54:27;101000.38;;;19.93;80.20
78615;BME280;67937;52.488;20.952;2023-08-21T02:56:55;100997.50;;;19.88;80.17
78615;BME280;67937;52.488;20.952;2023-08-21T02:59:22;100994.05;;;19.83;80.16
78615;BME280;67937;52.488;20.952;2023-08-21T03:01:50;100988.39;;;19.79;80.36
78615;BME280;67937;52.488;20.952;2023-08-21T03:04:18;100984.16;;;19.79;80.63
78615;BME280;67937;52.488;20.952;2023-08-21T03:06:46;100974.84;;;19.76;80.41
78615;BME280;67937;52.488;20.952;2023-08-21T03:09:14;100969.12;;;19.72;80.66
78615;BME280;67937;52.488;20.952;2023-08-21T03:11:42;100965.73;;;19.72;80.53
78615;BME280;67937;52.488;20.952;2023-08-21T03:14:10;100972.29;;;19.71;81.12
78615;BME280;67937;52.488;20.952;2023-08-21T03:16:38;100976.39;;;19.63;81.45
78615;BME280;67937;52.488;20.952;2023-08-21T03:19:06;100978.63;;;19.59;81.84
78615;BME280;67937;52.488;20.952;2023-08-21T03:21:34;100981.27;;;19.66;81.83
78615;BME280;67937;52.488;20.952;2023-08-21T03:24:01;100981.30;;;19.76;81.53
78615;BME280;67937;52.488;20.952;2023-08-21T03:26:29;100980.02;;;19.79;81.35
78615;BME280;67937;52.488;20.952;2023-08-21T03:28:57;100983.42;;;19.82;81.13
78615;BME280;67937;52.488;20.952;2023-08-21T03:31:25;100986.28;;;19.84;81.17
78615;BME280;67937;52.488;20.952;2023-08-21T03:33:53;100986.98;;;19.82;82.12
78615;BME280;67937;52.488;20.952;2023-08-21T03:36:22;100988.59;;;19.82;81.65
78615;BME280;67937;52.488;20.952;2023-08-21T03:39:00;100992.42;;;19.85;81.51
78615;BME280;67937;52.488;20.952;2023-08-21T03:41:28;100993.52;;;19.88;81.59
78615;BME280;67937;52.488;20.952;2023-08-21T03:43:56;100997.16;;;19.93;81.10
78615;BME280;67937;52.488;20.952;2023-08-21T03:46:24;100996.65;;;19.96;81.50
78615;BME280;67937;52.488;20.952;2023-08-21T03:48:52;100999.88;;;19.97;81.37
78615;BME280;67937;52.488;20.952;2023-08-21T03:51:20;100999.89;;;19.99;81.28
78615;BME280;67937;52.488;20.952;2023-08-21T03:53:49;100997.90;;;20.00;81.31
78615;BME280;67937;52.488;20.952;2023-08-21T03:56:17;100994.48;;;20.02;81.24
78615;BME280;67937;52.488;20.952;2023-08-21T03:58:45;100996.14;;;20.03;81.09
78615;BME280;67937;52.488;20.952;2023-08-21T04:01:14;100997.47;;;20.03;81.23
78615;BME280;67937;52.488;20.952;2023-08-21T04:03:42;101000.43;;;20.02;81.03
78615;BME280;67937;52.488;20.952;2023-08-21T04:06:10;100997.77;;;20.00;81.03
78615;BME280;67937;52.488;20.952;2023-08-21T04:08:38;100995.65;;;19.98;81.42
78615;BME280;67937;52.488;20.952;2023-08-21T04:11:06;100984.08;;;19.99;81.24
78615;BME280;67937;52.488;20.952;2023-08-21T04:13:34;100984.13;;;19.98;81.53
78615;BME280;67937;52.488;20.952;2023-08-21T04:16:02;100990.96;;;20.02;81.51
78615;BME280;67937;52.488;20.952;2023-08-21T04:18:31;100991.54;;;20.03;81.34
78615;BME280;67937;52.488;20.952;2023-08-21T04:20:59;100995.12;;;20.03;81.68
78615;BME280;67937;52.488;20.952;2023-08-21T04:23:27;101001.73;;;20.01;82.00
78615;BME280;67937;52.488;20.952;2023-08-21T04:26:01;100999.55;;;20.03;81.87
78615;BME280;67937;52.488;20.952;2023-08-21T04:28:30;101005.55;;;20.07;81.88
78615;BME280;67937;52.488;20.952;2023-08-21T04:30:58;101007.36;;;20.10;82.35
78615;BME280;67937;52.488;20.952;2023-08-21T04:33:28;101004.38;;;20.10;82.64
78615;BME280;67937;52.488;20.952;2023-08-21T04:35:56;101001.65;;;20.17;82.66
78615;BME280;67937;52.488;20.952;2023-08-21T04:38:24;100999.55;;;20.28;82.89
78615;BME280;67937;52.488;20.952;2023-08-21T04:40:52;101007.89;;;20.33;82.80
78615;BME280;67937;52.488;20.952;2023-08-21T04:43:20;101016.73;;;20.43;83.27
78615;BME280;67937;52.488;20.952;2023-08-21T04:45:48;101020.89;;;20.52;83.70
78615;BME280;67937;52.488;20.952;2023-08-21T04:48:17;101015.25;;;20.55;83.67
78615;BME280;67937;52.488;20.952;2023-08-21T04:50:45;101009.30;;;20.58;83.98
78615;BME280;67937;52.488;20.952;2023-08-21T04:53:13;101017.95;;;20.61;84.29
78615;BME280;67937;52.488;20.952;2023-08-21T04:55:42;101017.61;;;20.64;84.44
78615;BME280;67937;52.488;20.952;2023-08-21T04:58:10;101012.20;;;20.66;84.27
78615;BME280;67937;52.488;20.952;2023-08-21T05:00:38;101010.98;;;20.67;84.27
78615;BME280;67937;52.488;20.952;2023-08-21T05:03:06;101008.31;;;20.69;84.01
78615;BME280;67937;52.488;20.952;2023-08-21T05:05:36;101003.35;;;20.71;84.02
78615;BME280;67937;52.488;20.952;2023-08-21T05:08:04;100999.91;;;20.75;84.24
78615;BME280;67937;52.488;20.952;2023-08-21T05:10:31;101002.27;;;20.78;84.51
78615;BME280;67937;52.488;20.952;2023-08-21T05:12:59;100996.34;;;20.81;84.14
78615;BME280;67937;52.488;20.952;2023-08-21T05:15:28;100993.53;;;20.88;83.92
78615;BME280;67937;52.488;20.952;2023-08-21T05:17:56;100999.13;;;20.98;83.47
78615;BME280;67937;52.488;20.952;2023-08-21T05:20:23;101006.95;;;21.08;83.36
78615;BME280;67937;52.488;20.952;2023-08-21T05:22:51;101014.96;;;21.10;83.44
78615;BME280;67937;52.488;20.952;2023-08-21T05:25:19;101021.70;;;21.12;83.40
78615;BME280;67937;52.488;20.952;2023-08-21T05:27:47;101029.71;;;21.14;83.50
78615;BME280;67937;52.488;20.952;2023-08-21T05:30:15;101030.03;;;21.21;83.54
78615;BME280;67937;52.488;20.952;2023-08-21T05:32:43;101032.27;;;21.20;83.37
78615;BME280;67937;52.488;20.952;2023-08-21T05:35:11;101038.23;;;21.21;83.42
78615;BME280;67937;52.488;20.952;2023-08-21T05:37:39;101039.58;;;21.30;83.23
78615;BME280;67937;52.488;20.952;2023-08-21T05:40:07;101043.55;;;21.39;83.21
78615;BME280;67937;52.488;20.952;2023-08-21T05:42:35;101047.98;;;21.47;82.54
78615;BME280;67937;52.488;20.952;2023-08-21T05:45:04;101048.64;;;21.57;82.36
78615;BME280;67937;52.488;20.952;2023-08-21T05:47:32;101045.52;;;21.63;82.10
78615;BME280;67937;52.488;20.952;2023-08-21T05:50:00;101046.55;;;21.65;82.07
78615;BME280;67937;52.488;20.952;2023-08-21T05:52:28;101047.75;;;21.65;82.00
78615;BME280;67937;52.488;20.952;2023-08-21T05:54:56;101052.28;;;21.63;82.05
78615;BME280;67937;52.488;20.952;2023-08-21T05:57:23;101056.09;;;21.63;82.23
78615;BME280;67937;52.488;20.952;2023-08-21T05:59:51;101059.15;;;21.63;82.38
78615;BME280;67937;52.488;20.952;2023-08-21T06:02:19;101062.56;;;21.67;82.57
78615;BME280;67937;52.488;20.952;2023-08-21T06:04:47;101066.77;;;21.83;82.58
78615;BME280;67937;52.488;20.952;2023-08-21T06:07:15;101071.83;;;22.02;82.21
78615;BME280;67937;52.488;20.952;2023-08-21T06:09:43;101072.81;;;22.14;81.66
78615;BME280;67937;52.488;20.952;2023-08-21T06:12:11;101066.61;;;22.25;80.99
78615;BME280;67937;52.488;20.952;2023-08-21T06:14:39;101065.41;;;22.38;80.93
78615;BME280;67937;52.488;20.952;2023-08-21T06:17:08;101062.27;;;22.54;80.33
78615;BME280;67937;52.488;20.952;2023-08-21T06:19:37;101060.67;;;22.61;79.97
78615;BME280;67937;52.488;20.952;2023-08-21T06:22:07;101072.81;;;22.58;79.85
78615;BME280;67937;52.488;20.952;2023-08-21T06:24:35;101078.39;;;22.42;80.49
78615;BME280;67937;52.488;20.952;2023-08-21T06:27:03;101075.64;;;22.42;80.54
78615;BME280;67937;52.488;20.952;2023-08-21T06:29:31;101078.39;;;22.41;80.43
78615;BME280;67937;52.488;20.952;2023-08-21T06:31:59;101073.63;;;22.45;80.10
78615;BME280;67937;52.488;20.952;2023-08-21T06:34:27;101078.48;;;22.54;79.77
78615;BME280;67937;52.488;20.952;2023-08-21T06:36:55;101076.81;;;22.69;79.63
78615;BME280;67937;52.488;20.952;2023-08-21T06:39:25;101083.63;;;22.87;79.56
78615;BME280;67937;52.488;20.952;2023-08-21T06:41:53;101091.08;;;23.01;79.11
78615;BME280;67937;52.488;20.952;2023-08-21T06:44:21;101088.66;;;23.15;79.14
78615;BME280;67937;52.488;20.952;2023-08-21T06:46:49;101091.09;;;23.30;78.51
78615;BME280;67937;52.488;20.952;2023-08-21T06:49:17;101094.89;;;23.45;78.12
78615;BME280;67937;52.488;20.952;2023-08-21T06:51:44;101100.58;;;23.55;78.04
78615;BME280;67937;52.488;20.952;2023-08-21T06:54:12;101105.66;;;23.64;77.53
78615;BME280;67937;52.488;20.952;2023-08-21T06:56:40;101107.48;;;23.61;77.91
78615;BME280;67937;52.488;20.952;2023-08-21T06:59:08;101102.31;;;23.75;77.54
78615;BME280;67937;52.488;20.952;2023-08-21T07:01:36;101106.76;;;23.84;77.44
78615;BME280;67937;52.488;20.952;2023-08-21T07:04:04;101106.15;;;23.99;76.82
78615;BME280;67937;52.488;20.952;2023-08-21T07:06:32;101106.45;;;24.15;76.63
78615;BME280;67937;52.488;20.952;2023-08-21T07:09:01;101103.89;;;24.16;76.54
78615;BME280;67937;52.488;20.952;2023-08-21T07:11:29;101115.98;;;24.09;76.35
78615;BME280;67937;52.488;20.952;2023-08-21T07:13:57;101116.98;;;23.92;76.56
78615;BME280;67937;52.488;20.952;2023-08-21T07:16:25;101119.27;;;23.86;76.27
78615;BME280;67937;52.488;20.952;2023-08-21T07:18:54;101119.73;;;23.74;76.88
78615;BME280;67937;52.488;20.952;2023-08-21T07:21:22;101127.52;;;23.67;76.90
78615;BME280;67937;52.488;20.952;2023-08-21T07:23:49;101128.69;;;23.69;77.27
78615;BME280;67937;52.488;20.952;2023-08-21T07:26:17;101131.06;;;23.70;77.59
78615;BME280;67937;52.488;20.952;2023-08-21T07:28:45;101136.27;;;23.67;77.74
78615;BME280;67937;52.488;20.952;2023-08-21T07:31:13;101142.11;;;23.64;77.85
78615;BME280;67937;52.488;20.952;2023-08-21T07:33:41;101148.36;;;23.61;77.64
78615;BME280;67937;52.488;20.952;2023-08-21T07:36:09;101144.18;;;23.60;78.06
78615;BME280;67937;52.488;20.952;2023-08-21T07:38:41;101141.56;;;23.71;77.85
78615;BME280;67937;52.488;20.952;2023-08-21T07:41:10;101141.16;;;23.76;78.03
78615;BME280;67937;52.488;20.952;2023-08-21T07:43:42;101142.85;;;23.80;77.40
78615;BME280;67937;52.488;20.952;2023-08-21T07:46:12;101139.80;;;23.77;76.52
78615;BME280;67937;52.488;20.952;2023-08-21T07:48:42;101137.28;;;23.78;76.99
78615;BME280;67937;52.488;20.952;2023-08-21T07:51:11;101134.08;;;23.92;77.26
78615;BME280;67937;52.488;20.952;2023-08-21T07:53:39;101130.13;;;24.18;76.89
78615;BME280;67937;52.488;20.952;2023-08-21T07:56:08;101126.44;;;24.21;76.27
78615;BME280;67937;52.488;20.952;2023-08-21T07:58:35;101124.83;;;24.20;76.10
78615;BME280;67937;52.488;20.952;2023-08-21T08:01:03;101117.41;;;24.32;75.74
78615;BME280;67937;52.488;20.952;2023-08-21T08:03:32;101122.83;;;24.38;75.35
78615;BME280;67937;52.488;20.952;2023-08-21T08:06:00;101121.84;;;24.33;75.78
78615;BME280;67937;52.488;20.952;2023-08-21T08:08:28;101123.04;;;24.32;75.72
78615;BME280;67937;52.488;20.952;2023-08-21T08:11:01;101115.55;;;24.38;75.23
78615;BME280;67937;52.488;20.952;2023-08-21T08:13:31;101119.85;;;24.51;75.55
78615;BME280;67937;52.488;20.952;2023-08-21T08:15:59;101122.06;;;24.69;74.90
78615;BME280;67937;52.488;20.952;2023-08-21T08:18:27;101128.13;;;24.68;74.75
78615;BME280;67937;52.488;20.952;2023-08-21T08:20:55;101127.75;;;24.58;75.25
78615;BME280;67937;52.488;20.952;2023-08-21T08:23:23;101126.77;;;24.63;74.96
78615;BME280;67937;52.488;20.952;2023-08-21T08:25:51;101122.50;;;24.66;74.64
78615;BME280;67937;52.488;20.952;2023-08-21T08:28:19;101127.03;;;24.74;74.72
78615;BME280;67937;52.488;20.952;2023-08-21T08:30:47;101125.04;;;24.96;74.22
78615;BME280;67937;52.488;20.952;2023-08-21T08:33:15;101124.77;;;25.17;73.09
78615;BME280;67937;52.488;20.952;2023-08-21T08:35:43;101123.59;;;25.27;72.44
78615;BME280;67937;52.488;20.952;2023-08-21T08:38:11;101120.80;;;25.40;71.15
78615;BME280;67937;52.488;20.952;2023-08-21T08:40:46;101115.89;;;25.38;70.37
78615;BME280;67937;52.488;20.952;2023-08-21T08:43:14;101112.98;;;25.37;71.28
78615;BME280;67937;52.488;20.952;2023-08-21T08:45:44;101116.39;;;25.43;70.69
78615;BME280;67937;52.488;20.952;2023-08-21T08:48:15;101111.58;;;25.45;71.59
78615;BME280;67937;52.488;20.952;2023-08-21T08:50:45;101111.63;;;25.58;69.93
78615;BME280;67937;52.488;20.952;2023-08-21T08:53:13;101105.67;;;25.57;69.66
78615;BME280;67937;52.488;20.952;2023-08-21T08:55:42;101104.54;;;25.48;69.44
78615;BME280;67937;52.488;20.952;2023-08-21T08:58:10;101111.23;;;25.50;69.79
78615;BME280;67937;52.488;20.952;2023-08-21T09:00:38;101106.70;;;25.48;70.07
78615;BME280;67937;52.488;20.952;2023-08-21T09:03:05;101103.45;;;25.50;70.34
78615;BME280;67937;52.488;20.952;2023-08-21T09:05:34;101101.27;;;25.64;70.38
78615;BME280;67937;52.488;20.952;2023-08-21T09:08:03;101104.35;;;25.78;70.39
78615;BME280;67937;52.488;20.952;2023-08-21T09:10:31;101099.73;;;25.88;70.03
78615;BME280;67937;52.488;20.952;2023-08-21T09:12:59;101096.84;;;25.95;69.83
78615;BME280;67937;52.488;20.952;2023-08-21T09:15:28;101096.06;;;26.02;69.07
78615;BME280;67937;52.488;20.952;2023-08-21T09:17:57;101087.07;;;25.92;68.47
78615;BME280;67937;52.488;20.952;2023-08-21T09:20:25;101085.61;;;25.93;68.74
78615;BME280;67937;52.488;20.952;2023-08-21T09:22:54;101082.45;;;26.02;67.31
78615;BME280;67937;52.488;20.952;2023-08-21T09:25:23;101080.27;;;25.93;67.67
78615;BME280;67937;52.488;20.952;2023-08-21T09:27:53;101080.08;;;25.95;67.18
78615;BME280;67937;52.488;20.952;2023-08-21T09:30:21;101085.39;;;25.92;67.90
78615;BME280;67937;52.488;20.952;2023-08-21T09:32:59;101074.41;;;25.95;67.27
78615;BME280;67937;52.488;20.952;2023-08-21T09:35:27;101071.98;;;25.96;67.29
78615;BME280;67937;52.488;20.952;2023-08-21T09:37:55;101070.13;;;26.00;65.69
78615;BME280;67937;52.488;20.952;2023-08-21T09:40:23;101068.91;;;25.99;64.98
78615;BME280;67937;52.488;20.952;2023-08-21T09:43:01;101067.97;;;26.00;65.07
78615;BME280;67937;52.488;20.952;2023-08-21T09:45:33;101067.05;;;26.01;65.49
78615;BME280;67937;52.488;20.952;2023-08-21T09:48:02;101071.64;;;26.22;62.78
78615;BME280;67937;52.488;20.952;2023-08-21T09:50:31;101074.44;;;26.21;63.06
78615;BME280;67937;52.488;20.952;2023-08-21T09:52:59;101071.44;;;26.25;62.90
78615;BME280;67937;52.488;20.952;2023-08-21T09:55:28;101073.86;;;26.24;63.31
78615;BME280;67937;52.488;20.952;2023-08-21T09:58:01;101069.53;;;26.27;63.42
78615;BME280;67937;52.488;20.952;2023-08-21T10:00:32;101071.73;;;26.44;60.19
78615;BME280;67937;52.488;20.952;2023-08-21T10:03:08;101072.16;;;26.45;60.49
78615;BME280;67937;52.488;20.952;2023-08-21T10:05:37;101070.60;;;26.56;59.03
78615;BME280;67937;52.488;20.952;2023-08-21T10:08:07;101074.64;;;26.48;59.53
78615;BME280;67937;52.488;20.952;2023-08-21T10:10:37;101075.23;;;26.61;58.25
78615;BME280;67937;52.488;20.952;2023-08-21T10:13:07;101078.31;;;26.54;59.20
78615;BME280;67937;52.488;20.952;2023-08-21T10:15:37;101072.69;;;26.58;57.94
78615;BME280;67937;52.488;20.952;2023-08-21T10:18:29;101076.85;;;26.54;56.70
78615;BME280;67937;52.488;20.952;2023-08-21T10:21:14;101078.77;;;26.51;56.70
78615;BME280;67937;52.488;20.952;2023-08-21T10:23:45;101075.20;;;26.62;57.56
78615;BME280;67937;52.488;20.952;2023-08-21T10:26:14;101083.60;;;26.76;55.85
78615;BME280;67937;52.488;20.952;2023-08-21T10:29:20;101082.34;;;26.72;53.89
78615;BME280;67937;52.488;20.952;2023-08-21T10:31:58;101081.73;;;26.50;53.59
78615;BME280;67937;52.488;20.952;2023-08-21T10:34:37;101076.99;;;26.24;54.25
78615;BME280;67937;52.488;20.952;2023-08-21T10:37:06;101073.31;;;26.22;54.36
78615;BME280;67937;52.488;20.952;2023-08-21T10:39:36;101072.92;;;26.19;54.88
78615;BME280;67937;52.488;20.952;2023-08-21T10:42:07;101075.51;;;26.30;54.48
78615;BME280;67937;52.488;20.952;2023-08-21T10:44:37;101075.45;;;26.38;54.53
78615;BME280;67937;52.488;20.952;2023-08-21T10:47:18;101074.27;;;26.34;54.59
78615;BME280;67937;52.488;20.952;2023-08-21T10:49:51;101075.86;;;26.59;52.11
78615;BME280;67937;52.488;20.952;2023-08-21T10:52:23;101079.50;;;26.63;53.14
78615;BME280;67937;52.488;20.952;2023-08-21T10:54:53;101078.13;;;26.75;52.66
78615;BME280;67937;52.488;20.952;2023-08-21T10:57:24;101078.18;;;26.86;53.11
78615;BME280;67937;52.488;20.952;2023-08-21T11:02:32;101072.45;;;27.10;50.91
78615;BME280;67937;52.488;20.952;2023-08-21T11:05:01;101074.73;;;27.18;49.46
78615;BME280;67937;52.488;20.952;2023-08-21T11:07:30;101076.17;;;27.12;50.77
78615;BME280;67937;52.488;20.952;2023-08-21T11:10:07;101072.48;;;27.21;49.91
78615;BME280;67937;52.488;20.952;2023-08-21T11:12:35;101077.12;;;27.26;50.59
78615;BME280;67937;52.488;20.952;2023-08-21T11:15:03;101073.11;;;27.34;50.41
78615;BME280;67937;52.488;20.952;2023-08-21T11:17:31;101067.41;;;27.44;49.98
78615;BME280;67937;52.488;20.952;2023-08-21T11:20:01;101067.34;;;27.52;49.33
78615;BME280;67937;52.488;20.952;2023-08-21T11:22:31;101071.18;;;27.59;48.98
78615;BME280;67937;52.488;20.952;2023-08-21T11:24:59;101067.27;;;27.62;50.06
78615;BME280;67937;52.488;20.952;2023-08-21T11:27:27;101063.10;;;27.72;49.09
78615;BME280;67937;52.488;20.952;2023-08-21T11:29:55;101066.61;;;27.85;48.11
78615;BME280;67937;52.488;20.952;2023-08-21T11:32:24;101069.88;;;27.85;46.97
78615;BME280;67937;52.488;20.952;2023-08-21T11:34:53;101066.27;;;27.86;48.44
78615;BME280;67937;52.488;20.952;2023-08-21T11:37:26;101063.54;;;27.98;46.74
78615;BME280;67937;52.488;20.952;2023-08-21T11:39:57;101061.95;;;27.95;45.33
78615;BME280;67937;52.488;20.952;2023-08-21T11:42:30;101061.68;;;27.92;46.74
78615;BME280;67937;52.488;20.952;2023-08-21T11:44:59;101060.89;;;28.00;47.75
78615;BME280;67937;52.488;20.952;2023-08-21T11:47:33;101061.60;;;28.09;47.92
78615;BME280;67937;52.488;20.952;2023-08-21T11:50:06;101056.29;;;28.17;47.26
78615;BME280;67937;52.488;20.952;2023-08-21T11:52:36;101051.94;;;28.24;46.99
78615;BME280;67937;52.488;20.952;2023-08-21T11:55:11;101048.32;;;28.27;47.46
78615;BME280;67937;52.488;20.952;2023-08-21T11:57:49;101044.70;;;28.37;45.68
78615;BME280;67937;52.488;20.952;2023-08-21T12:00:18;101046.15;;;28.39;45.86
78615;BME280;67937;52.488;20.952;2023-08-21T12:02:59;101047.27;;;28.40;46.50
78615;BME280;67937;52.488;20.952;2023-08-21T12:05:29;101046.56;;;28.47;46.90
78615;BME280;67937;52.488;20.952;2023-08-21T12:07:57;101045.80;;;28.53;47.08
78615;BME280;67937;52.488;20.952;2023-08-21T12:10:26;101044.34;;;28.60;45.63
78615;BME280;67937;52.488;20.952;2023-08-21T12:12:55;101043.17;;;28.61;46.00
78615;BME280;67937;52.488;20.952;2023-08-21T12:15:23;101046.09;;;28.63;46.00
78615;BME280;67937;52.488;20.952;2023-08-21T12:17:51;101041.02;;;28.69;44.05
78615;BME280;67937;52.488;20.952;2023-08-21T12:20:19;101045.09;;;28.67;43.17
78615;BME280;67937;52.488;20.952;2023-08-21T12:22:47;101040.09;;;28.64;44.19
78615;BME280;67937;52.488;20.952;2023-08-21T12:25:15;101037.27;;;28.66;45.06
78615;BME280;67937;52.488;20.952;2023-08-21T12:27:43;101035.85;;;28.70;44.49
78615;BME280;67937;52.488;20.952;2023-08-21T12:30:11;101034.61;;;28.68;44.93
78615;BME280;67937;52.488;20.952;2023-08-21T12:32:38;101028.41;;;28.73;44.84
78615;BME280;67937;52.488;20.952;2023-08-21T12:35:07;101032.80;;;28.79;42.63
78615;BME280;67937;52.488;20.952;2023-08-21T12:37:38;101031.30;;;28.67;42.12
78615;BME280;67937;52.488;20.952;2023-08-21T12:40:06;101036.92;;;28.61;42.25
78615;BME280;67937;52.488;20.952;2023-08-21T12:42:35;101036.35;;;28.60;42.56
78615;BME280;67937;52.488;20.952;2023-08-21T12:45:03;101032.04;;;28.59;43.36
78615;BME280;67937;52.488;20.952;2023-08-21T12:47:31;101030.58;;;28.68;44.67
78615;BME280;67937;52.488;20.952;2023-08-21T12:49:59;101036.24;;;28.78;43.43
78615;BME280;67937;52.488;20.952;2023-08-21T12:52:28;101039.94;;;28.78;43.15
78615;BME280;67937;52.488;20.952;2023-08-21T12:54:56;101038.33;;;28.75;41.58